Latest Weather Observations for Maroochydore

IDQ60801

Issued at 4:03 pm EST Sunday 26 June 2016 (issued every 30 minutes, with the page automatically refreshed every 10 minutes)

About weather observations | Map of weather stations | Latest weather observations for QLD | Other Formats
Station Details ID: 040861 Name: SUNSHINE COAST AIRPORT Lat: -26.60 Lon: 153.09 Height: 3.3 m
Data from the previous 72 hours. | See also: Recent months at Maroochydore
Date/Time
EST
Temp
°C
App
Temp
°C
Dew
Point
°C
Rel
Hum
%
Delta-T
°C
Wind Press
QNH
hPa
Press
MSL
hPa
Rain since
9am
mm
Dir  Spd
km/h
Gust
km/h
Spd
kts
Gust
kts
26/03:30pm 17.0 15.5 9.2 60 4.0 E 7 11 4 6 1016.9 - 0.0
26/03:00pm 17.0 15.3 8.4 57 4.4 E 7 9 4 5 1017.0 1017.0 0.0
26/02:30pm 17.7 15.9 8.0 53 4.9 E 7 11 4 6 1017.4 - 0.0
26/02:00pm 18.3 16.1 7.7 50 5.4 ENE 9 13 5 7 1017.6 - 0.0
26/01:30pm 18.4 16.0 7.2 48 5.6 ENE 9 13 5 7 1018.0 - 0.0
26/01:00pm 18.2 16.4 7.9 51 5.2 NE 7 11 4 6 1018.5 - 0.0
26/12:30pm 17.8 15.3 6.7 48 5.5 E 9 11 5 6 1019.1 - 0.0
26/12:00pm 18.6 16.4 6.4 45 6.0 NE 7 11 4 6 1019.9 1019.9 0.0
26/11:30am 19.4 18.1 5.8 41 6.7 N 2 9 1 5 1019.9 - 0.0
26/11:00am 18.4 16.5 6.6 46 5.9 SSW 6 9 3 5 1020.3 - 0.0
26/10:30am 17.0 14.7 5.9 48 5.4 SW 7 11 4 6 1020.5 - 0.0
26/10:00am 14.8 12.2 5.9 55 4.3 SSW 9 13 5 7 1020.7 - 0.0
26/09:30am 11.8 9.9 6.7 71 2.4 SSW 6 9 3 5 1020.8 - 0.0
26/09:00am 9.6 7.9 7.5 87 1.0 SW 6 7 3 4 1021.3 1021.3 0.0
26/08:30am 8.5 6.6 7.4 93 0.5 W 7 9 4 5 1021.5 - 0.0
26/08:00am 7.4 5.4 7.0 97 0.2 W 7 9 4 5 1020.7 - 0.0
26/07:30am 5.4 3.1 5.0 97 0.2 W 6 9 3 5 1021.2 - 0.0
26/07:00am 4.3 1.6 3.9 97 0.2 WSW 7 9 4 5 1021.0 - 0.0
26/06:30am 3.5 -0.5 3.1 97 0.2 W 13 15 7 8 1020.5 - 0.0
26/06:00am 3.2 -0.1 2.6 96 0.2 WNW 9 11 5 6 1019.6 1019.6 0.0
26/05:30am 3.4 0.7 2.8 96 0.2 W 6 7 3 4 1019.0 - 0.0
26/05:00am 3.5 -0.1 2.9 96 0.2 WNW 11 13 6 7 1018.9 - 0.0
26/04:30am 3.6 0.4 3.2 97 0.2 WNW 9 11 5 6 1018.9 - 0.0
26/04:00am 3.7 0.9 3.3 97 0.2 W 7 9 4 5 1018.3 - 0.0
26/03:30am 3.7 -0.3 3.1 96 0.2 W 13 13 7 7 1018.4 - 0.0
26/03:00am 4.0 0.9 3.4 96 0.2 WNW 9 11 5 6 1018.8 1018.8 0.0
26/02:30am 3.8 0.6 3.2 96 0.2 W 9 9 5 5 1019.0 - 0.0
26/02:00am 4.2 1.1 3.6 96 0.2 W 9 9 5 5 1018.6 - 0.0
26/01:30am 4.2 1.1 3.6 96 0.2 W 9 9 5 5 1019.0 - 0.0
26/01:00am 4.5 1.5 3.9 96 0.3 W 9 11 5 6 1019.1 - 0.0
26/12:30am 4.2 1.1 3.5 95 0.3 W 9 13 5 7 1019.3 - 0.0
26/12:00am 4.2 1.5 3.6 96 0.2 WSW 7 9 4 5 1019.2 1019.2 0.0
 
Date/Time
EST
Temp
°C
App
Temp
°C
Dew
Point
°C
Rel
Hum
%
Delta-T
°C
Wind Press
QNH
hPa
Press
MSL
hPa
Rain since
9am
mm
Dir  Spd
km/h
Gust
km/h
Spd
kts
Gust
kts
25/11:30pm 4.4 1.7 3.7 95 0.3 W 7 7 4 4 1019.5 - 0.0
25/11:00pm 4.7 2.2 4.0 95 0.3 W 6 9 3 5 1019.9 - 0.0
25/10:30pm 5.2 2.6 4.3 94 0.4 W 7 9 4 5 1020.2 - 0.0
25/10:00pm 5.5 3.0 4.8 95 0.3 W 7 9 4 5 1020.1 - 0.0
25/09:30pm 5.7 2.8 4.7 93 0.4 WNW 9 13 5 7 1020.1 - 0.0
25/09:00pm 6.0 3.5 4.8 92 0.5 WSW 7 9 4 5 1019.7 1019.7 0.0
25/08:30pm 6.5 3.6 4.8 89 0.7 WSW 9 9 5 5 1019.8 - 0.0
25/08:00pm 6.9 4.4 4.9 87 0.9 WSW 7 9 4 5 1019.8 - 0.0
25/07:30pm 7.1 4.4 5.4 89 0.8 WSW 9 13 5 7 1019.6 - 0.0
25/07:00pm 7.7 4.9 5.3 85 1.1 WSW 9 11 5 6 1019.0 - 0.0
25/06:30pm 8.1 5.8 5.6 84 1.1 W 7 11 4 6 1018.9 - 0.0
25/06:00pm 9.5 7.2 5.7 77 1.7 WSW 7 9 4 5 1018.3 1018.3 0.0
25/05:30pm 10.4 9.1 3.9 64 2.9 CALM 0 4 0 2 1018.2 - 0.0
25/05:00pm 13.8 11.2 3.3 49 4.7 WSW 6 9 3 5 1017.8 - 0.0
25/04:30pm 15.8 11.5 -1.3 31 7.1 SW 11 15 6 8 1017.4 - 0.0
25/04:00pm 17.2 12.6 -1.4 28 7.8 SW 13 22 7 12 1016.9 - 0.0
25/03:30pm 17.6 11.9 -0.6 29 7.8 W 19 20 10 11 1016.8 - 0.0
25/03:00pm 18.3 13.6 -2.0 25 8.5 SW 13 17 7 9 1016.6 1016.6 0.0
25/02:30pm 18.3 12.0 -3.8 22 8.9 S 20 26 11 14 1016.6 - 0.0
25/02:00pm 18.7 13.2 -2.3 24 8.7 SW 17 24 9 13 1016.7 - 0.0
25/01:30pm 18.3 12.4 -2.0 25 8.5 SSW 19 28 10 15 1017.0 - 0.0
25/01:00pm 17.7 11.7 -3.1 24 8.4 SW 19 28 10 15 1017.2 - 0.0
25/12:30pm 17.6 11.7 -2.6 25 8.3 SW 19 26 10 14 1017.6 - 0.0
25/12:00pm 17.0 11.2 -1.6 28 7.7 SW 19 28 10 15 1018.3 1018.3 0.0
25/11:30am 16.6 10.5 -2.0 28 7.6 WSW 20 26 11 14 1018.7 - 0.0
25/11:00am 16.0 10.3 -0.7 32 7.0 WSW 19 28 10 15 1019.0 - 0.0
25/10:30am 15.0 9.2 -0.3 35 6.4 WSW 20 30 11 16 1019.1 - 0.0
25/10:00am 14.5 8.6 -0.8 35 6.3 SW 20 33 11 18 1019.5 - 0.0
25/09:30am 13.9 7.7 -0.5 37 5.9 SSW 22 35 12 19 1019.2 - 0.0
25/09:00am 13.9 8.5 1.2 42 5.4 SW 19 28 10 15 1019.0 1019.0 0.0
25/08:30am 12.8 7.3 2.1 48 4.6 SW 20 30 11 16 1018.7 - 0.0
25/08:00am 12.0 7.9 2.2 51 4.2 SW 13 19 7 10 1018.7 - 0.0
25/07:30am 10.2 7.7 3.5 63 2.9 ENE 6 9 3 5 1018.7 - 0.0
25/07:00am 8.4 6.1 2.8 68 2.4 NE 4 9 2 5 1018.6 - 0.0
25/06:30am 9.2 5.5 2.3 62 2.9 SE 11 15 6 8 1018.0 - 0.0
25/06:00am 9.6 5.2 2.5 61 3.0 S 15 19 8 10 1017.3 1017.3 0.0
25/05:30am 8.7 5.2 3.3 69 2.3 SW 11 19 6 10 1016.6 - 0.0
25/05:00am 8.8 5.6 3.0 67 2.5 W 9 11 5 6 1016.1 - 0.0
25/04:30am 10.7 6.9 1.8 54 3.8 SW 11 17 6 9 1015.8 - 0.0
25/04:00am 10.8 6.7 2.1 55 3.7 SW 13 19 7 10 1015.4 - 0.0
25/03:30am 10.9 6.8 2.0 54 3.8 WSW 13 19 7 10 1015.2 - 0.0
25/03:00am 11.9 7.8 2.1 51 4.2 SW 13 20 7 11 1015.1 1015.1 0.0
25/02:30am 12.2 9.1 3.4 55 3.9 WSW 9 15 5 8 1014.8 - 0.0
25/02:00am 12.0 9.0 4.0 58 3.6 SSE 9 13 5 7 1014.5 - 0.0
25/01:30am 13.2 10.1 3.6 52 4.3 SSW 9 17 5 9 1014.0 - 0.0
25/01:00am 14.6 10.1 4.0 49 4.9 WSW 17 26 9 14 1013.7 - 0.0
25/12:30am 14.4 9.4 4.7 52 4.5 W 20 26 11 14 1013.6 - 0.0
25/12:00am 14.3 9.6 5.1 54 4.3 W 19 24 10 13 1013.7 1013.7 0.0
 
Date/Time
EST
Temp
°C
App
Temp
°C
Dew
Point
°C
Rel
Hum
%
Delta-T
°C
Wind Press
QNH
hPa
Press
MSL
hPa
Rain since
9am
mm
Dir  Spd
km/h
Gust
km/h
Spd
kts
Gust
kts
24/11:30pm 14.0 10.8 5.1 55 4.2 WNW 11 20 6 11 1014.0 - 0.0
24/11:00pm 14.4 12.0 5.2 54 4.3 W 7 17 4 9 1014.1 - 0.0
24/10:30pm 15.9 13.0 4.6 47 5.3 W 9 17 5 9 1014.2 - 0.0
24/10:00pm 16.9 12.2 5.2 46 5.6 WSW 19 28 10 15 1014.4 - 0.0
24/09:30pm 16.8 14.4 7.2 53 4.8 SW 9 17 5 9 1014.2 - 0.0
24/09:00pm 16.9 15.3 8.1 56 4.5 SE 6 15 3 8 1013.8 1013.8 0.0
24/08:30pm 18.3 14.3 8.3 52 5.1 WSW 19 32 10 17 1013.5 - 0.0
24/08:00pm 18.6 13.5 7.7 49 5.5 WSW 24 48 13 26 1012.9 - 0.0
24/07:49pm 19.0 13.1 7.4 47 5.9 W 28 46 15 25 1012.6 - 0.0
24/07:30pm 18.5 14.0 8.5 52 5.2 W 22 39 12 21 1012.4 - 0.0
24/07:00pm 19.0 15.4 9.8 55 4.9 WSW 19 32 10 17 1012.2 - 0.0
24/06:37pm 19.6 13.9 9.8 53 5.2 WSW 30 48 16 26 1012.1 - 0.0
24/06:30pm 19.9 14.7 10.3 54 5.2 WSW 28 41 15 22 1012.0 - 0.0
24/06:16pm 20.1 14.6 10.5 54 5.2 W 30 48 16 26 1011.8 - 0.0
24/06:00pm 20.1 15.2 11.3 57 4.8 W 28 39 15 21 1011.5 1011.5 0.0
24/05:30pm 20.6 16.7 12.1 58 4.8 WSW 24 35 13 19 1011.0 - 0.0
24/05:00pm 20.9 17.9 12.1 57 4.9 WSW 19 26 10 14 1010.5 - 0.0
24/04:30pm 22.1 18.0 11.5 51 5.9 W 24 35 13 19 1009.8 - 0.0
24/04:00pm 22.8 19.9 12.4 52 5.9 W 19 28 10 15 1009.6 - 0.0
24/03:30pm 23.5 19.9 11.9 48 6.6 W 22 35 12 19 1009.5 - 0.0
24/03:00pm 23.8 19.0 11.8 47 6.8 W 28 39 15 21 1009.2 1009.2 0.0
24/02:30pm 24.0 20.2 12.3 48 6.7 W 24 35 13 19 1009.5 - 0.0
24/02:00pm 23.8 19.4 12.8 50 6.3 W 28 39 15 21 1009.9 - 0.0
24/01:35pm 23.8 19.2 12.4 48 6.5 W 28 46 15 25 1010.1 - 0.0
24/01:30pm 24.1 19.6 12.7 49 6.6 W 28 37 15 20 1010.1 - 0.0
24/01:00pm 24.2 20.0 12.5 48 6.7 W 26 37 14 20 1010.3 - 0.0
24/12:30pm 24.3 20.9 13.8 52 6.2 W 24 33 13 18 1010.7 - 0.0
24/12:00pm 22.9 19.4 13.4 55 5.5 W 24 35 13 19 1011.4 1011.4 0.0
24/11:30am 21.7 19.1 13.9 61 4.5 W 20 32 11 17 1012.0 - 0.0
24/11:00am 20.7 19.6 14.4 67 3.7 WSW 13 22 7 12 1012.5 - 0.0
24/10:30am 19.7 20.0 15.1 75 2.7 NW 7 15 4 8 1012.8 - 0.0
24/10:00am 19.1 19.1 15.2 78 2.3 NNW 9 13 5 7 1013.2 - 0.0
24/09:30am 18.7 19.0 15.9 84 1.7 NW 9 11 5 6 1013.3 - 0.0
24/09:00am 18.0 18.1 15.6 86 1.4 NW 9 13 5 7 1013.4 1013.4 0.0
24/08:30am 17.4 17.1 15.4 88 1.2 NNW 11 15 6 8 1013.2 - 0.0
24/08:00am 16.9 17.3 15.2 90 1.0 N 7 9 4 5 1013.1 - 0.0
24/07:30am 16.6 16.2 15.1 91 0.9 NNW 11 13 6 7 1012.8 - 0.0
24/07:00am 16.6 16.4 14.8 89 1.0 WSW 9 11 5 6 1012.5 - 0.0
24/06:30am 16.7 16.6 14.9 89 1.0 NW 9 13 5 7 1012.3 - 0.0
24/06:00am 16.7 16.6 14.9 89 1.0 NW 9 15 5 8 1012.1 1012.1 0.0
24/05:30am 16.6 15.3 14.8 89 1.0 NNW 15 20 8 11 1011.9 - 0.0
24/05:00am 16.6 15.3 14.8 89 1.0 NNW 15 20 8 11 1011.6 - 0.0
24/04:30am 16.7 15.9 15.2 91 0.9 NNW 13 20 7 11 1011.5 - 0.0
24/04:00am 16.5 16.1 15.2 92 0.8 NW 11 19 6 10 1011.5 - 0.0
24/03:30am 16.1 15.1 14.6 91 0.9 NNW 13 15 7 8 1011.6 - 0.0
24/03:00am 16.3 15.5 14.1 87 1.2 NW 11 15 6 8 1012.0 1012.0 0.0
24/02:30am 16.4 15.6 14.1 86 1.3 WNW 11 15 6 8 1012.1 - 0.0
24/02:00am 16.3 15.1 14.1 87 1.2 NW 13 19 7 10 1012.2 - 0.0
24/01:30am 15.7 14.5 14.1 90 0.9 NW 13 17 7 9 1012.6 - 0.0
24/01:00am 15.0 14.6 14.0 94 0.6 NW 9 11 5 6 1012.8 - 0.0
24/12:30am 14.8 14.4 14.0 95 0.4 NW 9 11 5 6 1012.8 - 0.0
24/12:00am 14.5 13.9 13.5 94 0.6 NNW 9 11 5 6 1013.1 1013.1 0.0
 
Date/Time
EST
Temp
°C
App
Temp
°C
Dew
Point
°C
Rel
Hum
%
Delta-T
°C
Wind Press
QNH
hPa
Press
MSL
hPa
Rain since
9am
mm
Dir  Spd
km/h
Gust
km/h
Spd
kts
Gust
kts
23/11:30pm 14.6 14.0 13.6 94 0.6 NW 9 11 5 6 1012.8 - 0.0
23/11:00pm 14.9 14.8 13.9 94 0.6 NW 7 9 4 5 1013.3 - 0.0
23/10:30pm 15.0 16.3 14.0 94 0.6 CALM 0 0 0 0 1013.6 - 0.0
23/10:00pm 14.9 16.1 13.8 93 0.6 CALM 0 0 0 0 1013.9 - 0.0
23/09:30pm 14.8 15.9 13.5 92 0.7 CALM 0 0 0 0 1013.9 - 0.0
23/09:00pm 15.2 16.4 13.7 91 0.8 CALM 0 0 0 0 1013.7 1013.7 0.0
23/08:30pm 15.2 16.3 13.6 90 0.9 CALM 0 0 0 0 1013.4 - 0.0
23/08:00pm 15.4 14.9 13.8 90 0.9 WNW 9 11 5 6 1013.6 - 0.0
23/07:30pm 16.0 15.6 13.1 83 1.6 NNW 7 11 4 6 1013.4 - 0.0
23/07:00pm 16.3 15.6 13.2 82 1.7 NNW 9 11 5 6 1013.4 - 0.0
23/06:30pm 16.6 15.5 13.1 80 2.0 N 11 13 6 7 1013.0 - 0.0
23/06:00pm 17.7 16.3 13.4 76 2.4 NNE 13 15 7 8 1013.1 1013.1 0.0
23/05:30pm 18.3 17.8 13.8 75 2.6 NE 9 15 5 8 1013.2 - 0.0
23/05:00pm 18.8 17.6 13.9 73 2.8 ENE 13 17 7 9 1012.6 - 0.0
23/04:30pm 19.3 18.3 13.5 69 3.3 E 11 17 6 9 1012.4 - 0.0

Other Formats:

Comma delimited format used in spreadsheet applications
http://www.bom.gov.au/fwo/IDQ60801/IDQ60801.94569.axf

JavaScript Object Notation format (JSON) in row-major order
http://www.bom.gov.au/fwo/IDQ60801/IDQ60801.94569.json